createdAt,value
2022-11-07T00:00:08.000Z,12.80
2022-11-07T00:10:08.000Z,15.00
2022-11-07T00:20:07.000Z,12.50
2022-11-07T00:30:07.000Z,13.30
2022-11-07T00:40:07.000Z,13.60
2022-11-07T01:00:06.000Z,14.30
2022-11-07T01:10:05.000Z,16.50
2022-11-07T01:20:05.000Z,16.80
2022-11-07T01:30:05.000Z,15.40
2022-11-07T01:40:04.000Z,17.30
2022-11-07T01:50:04.000Z,15.80
2022-11-07T02:00:04.000Z,15.10
2022-11-07T02:10:04.000Z,14.60
2022-11-07T02:30:03.000Z,15.50
2022-11-07T02:40:03.000Z,16.30
2022-11-07T02:50:02.000Z,14.00
2022-11-07T03:00:02.000Z,14.00
2022-11-07T03:10:02.000Z,12.60
2022-11-07T03:20:01.000Z,13.20
2022-11-07T03:30:01.000Z,11.00
2022-11-07T03:40:01.000Z,8.80
2022-11-07T04:00:00.000Z,9.80
2022-11-07T04:10:00.000Z,8.80
2022-11-07T04:19:59.000Z,8.20
2022-11-07T04:29:59.000Z,8.30
2022-11-07T04:39:59.000Z,8.40
2022-11-07T04:49:58.000Z,8.80
2022-11-07T04:59:58.000Z,9.50
2022-11-07T04:59:58.000Z,9.50
2022-11-07T05:09:58.000Z,9.90
2022-11-07T05:29:57.000Z,8.60
2022-11-07T05:39:57.000Z,7.80
2022-11-07T05:49:56.000Z,9.00
2022-11-07T05:59:56.000Z,11.90
2022-11-07T06:09:55.000Z,7.80
2022-11-07T06:19:55.000Z,8.80
2022-11-07T06:29:55.000Z,8.30
2022-11-07T06:39:54.000Z,8.10
2022-11-07T06:59:54.000Z,8.70
2022-11-07T07:09:53.000Z,7.80
2022-11-07T07:19:53.000Z,7.90
2022-11-07T07:29:52.000Z,6.80
2022-11-07T07:39:52.000Z,6.60
2022-11-07T07:49:51.000Z,6.80
2022-11-07T07:59:51.000Z,6.50
2022-11-07T08:09:50.000Z,5.80
2022-11-07T08:29:49.000Z,6.20
2022-11-07T08:39:49.000Z,6.30
2022-11-07T08:49:48.000Z,5.80
2022-11-07T08:59:47.000Z,5.80
2022-11-07T09:09:47.000Z,6.20
2022-11-07T09:19:46.000Z,5.80
2022-11-07T09:29:46.000Z,5.50
2022-11-07T09:39:45.000Z,4.70
2022-11-07T09:59:44.000Z,4.90
2022-11-07T10:09:43.000Z,4.60
2022-11-07T10:19:42.000Z,4.10
2022-11-07T10:29:41.000Z,4.10
2022-11-07T10:39:41.000Z,4.20
2022-11-07T10:49:40.000Z,4.40
2022-11-07T10:59:39.000Z,4.40
2022-11-07T11:09:38.000Z,4.70
2022-11-07T11:29:37.000Z,4.40
2022-11-07T11:39:36.000Z,4.30
2022-11-07T11:49:35.000Z,4.40
2022-11-07T11:59:34.000Z,5.10
2022-11-07T12:09:33.000Z,4.70
2022-11-07T12:19:32.000Z,4.90
2022-11-07T12:29:31.000Z,3.40
2022-11-07T12:39:30.000Z,4.70
2022-11-07T12:59:29.000Z,4.50
2022-11-07T13:09:28.000Z,4.20
2022-11-07T13:19:27.000Z,4.50
2022-11-07T13:29:26.000Z,4.70
2022-11-07T13:39:25.000Z,4.00
2022-11-07T13:49:24.000Z,4.20
2022-11-07T13:49:24.000Z,4.20
2022-11-07T13:49:24.000Z,4.20
2022-11-07T13:59:23.000Z,4.70
2022-11-07T14:09:23.000Z,4.10
2022-11-07T14:29:21.000Z,4.10
2022-11-07T14:39:20.000Z,4.70
2022-11-07T14:49:19.000Z,5.00
2022-11-07T14:59:18.000Z,5.90
2022-11-07T15:09:17.000Z,8.00
2022-11-07T15:19:17.000Z,4.60
2022-11-07T15:29:16.000Z,4.60
2022-11-07T15:39:15.000Z,4.60
2022-11-07T15:59:13.000Z,4.50
2022-11-07T16:09:12.000Z,4.90
2022-11-07T16:19:12.000Z,4.90
2022-11-07T16:29:11.000Z,5.50
2022-11-07T16:39:10.000Z,5.10
2022-11-07T16:49:09.000Z,4.90
2022-11-07T16:59:08.000Z,5.00
2022-11-07T17:09:08.000Z,4.30
2022-11-07T17:29:06.000Z,5.70
2022-11-07T17:39:05.000Z,5.30
2022-11-07T17:49:05.000Z,6.00
2022-11-07T17:59:04.000Z,5.20
2022-11-07T18:09:03.000Z,6.30
2022-11-07T18:19:03.000Z,5.30
2022-11-07T18:29:02.000Z,6.20
2022-11-07T18:39:01.000Z,8.00
2022-11-07T18:59:00.000Z,7.40
2022-11-07T19:08:59.000Z,5.60
2022-11-07T19:18:58.000Z,6.10
2022-11-07T19:54:49.000Z,6.80
2022-11-07T20:10:07.000Z,6.60
2022-11-07T20:10:07.000Z,6.30
2022-11-07T20:20:07.000Z,5.80
2022-11-07T20:30:07.000Z,7.30
2022-11-07T20:40:06.000Z,7.00
2022-11-07T20:50:06.000Z,7.40
2022-11-07T21:00:06.000Z,7.00
2022-11-07T21:10:06.000Z,7.10
2022-11-07T21:20:06.000Z,6.50
2022-11-07T21:40:06.000Z,7.20
2022-11-07T21:40:06.000Z,7.20
2022-11-07T21:50:05.000Z,7.00
2022-11-07T22:00:05.000Z,6.70
2022-11-07T22:10:05.000Z,7.20
2022-11-07T22:20:05.000Z,8.40
2022-11-07T22:30:05.000Z,7.40
2022-11-07T22:30:05.000Z,7.40
2022-11-07T22:40:05.000Z,7.70
2022-11-07T22:50:05.000Z,7.20
2022-11-07T23:10:05.000Z,8.60
2022-11-07T23:20:05.000Z,6.50
2022-11-07T23:30:05.000Z,7.10
2022-11-07T23:40:05.000Z,8.50
2022-11-07T23:50:05.000Z,6.80
